sensor_id;sensor_type;location;lat;lon;timestamp;P1;durP1;ratioP1;P2;durP2;ratioP2
36279;SDS011;22317;47.936;12.742;2022-09-27T00:00:28;0.90;;;0.90;;
36279;SDS011;22317;47.936;12.742;2022-09-27T00:02:54;1.73;;;0.90;;
36279;SDS011;22317;47.936;12.742;2022-09-27T00:05:20;2.10;;;1.00;;
36279;SDS011;22317;47.936;12.742;2022-09-27T00:07:45;1.33;;;1.10;;
36279;SDS011;22317;47.936;12.742;2022-09-27T00:10:11;2.40;;;1.00;;
36279;SDS011;22317;47.936;12.742;2022-09-27T00:12:37;1.10;;;1.00;;
36279;SDS011;22317;47.936;12.742;2022-09-27T00:15:04;0.90;;;0.90;;
36279;SDS011;22317;47.936;12.742;2022-09-27T00:17:31;0.90;;;0.90;;
36279;SDS011;22317;47.936;12.742;2022-09-27T00:19:58;1.03;;;0.77;;
36279;SDS011;22317;47.936;12.742;2022-09-27T00:22:24;1.20;;;1.07;;
36279;SDS011;22317;47.936;12.742;2022-09-27T00:24:51;1.60;;;1.00;;
36279;SDS011;22317;47.936;12.742;2022-09-27T00:27:17;1.37;;;1.20;;
36279;SDS011;22317;47.936;12.742;2022-09-27T00:29:45;2.37;;;1.10;;
36279;SDS011;22317;47.936;12.742;2022-09-27T00:32:12;1.00;;;1.00;;
36279;SDS011;22317;47.936;12.742;2022-09-27T00:34:39;3.83;;;1.10;;
36279;SDS011;22317;47.936;12.742;2022-09-27T00:37:05;1.73;;;1.33;;
36279;SDS011;22317;47.936;12.742;2022-09-27T00:39:32;1.33;;;1.23;;
36279;SDS011;22317;47.936;12.742;2022-09-27T00:41:58;2.93;;;1.10;;
36279;SDS011;22317;47.936;12.742;2022-09-27T00:49:26;1.20;;;1.13;;
36279;SDS011;22317;47.936;12.742;2022-09-27T00:51:56;1.23;;;0.87;;
36279;SDS011;22317;47.936;12.742;2022-09-27T00:54:29;3.43;;;1.10;;
36279;SDS011;22317;47.936;12.742;2022-09-27T00:56:56;1.63;;;1.10;;
36279;SDS011;22317;47.936;12.742;2022-09-27T00:59:32;4.57;;;2.23;;
36279;SDS011;22317;47.936;12.742;2022-09-27T01:02:19;4.20;;;3.30;;
36279;SDS011;22317;47.936;12.742;2022-09-27T01:04:45;3.73;;;2.30;;
36279;SDS011;22317;47.936;12.742;2022-09-27T01:07:12;2.80;;;1.50;;
36279;SDS011;22317;47.936;12.742;2022-09-27T01:09:38;5.63;;;1.97;;
36279;SDS011;22317;47.936;12.742;2022-09-27T01:37:35;1.63;;;0.80;;
36279;SDS011;22317;47.936;12.742;2022-09-27T01:45:25;1.40;;;1.30;;
36279;SDS011;22317;47.936;12.742;2022-09-27T01:48:15;1.50;;;1.40;;
36279;SDS011;22317;47.936;12.742;2022-09-27T01:50:57;1.43;;;1.30;;
36279;SDS011;22317;47.936;12.742;2022-09-27T01:53:31;2.07;;;1.20;;
36279;SDS011;22317;47.936;12.742;2022-09-27T01:57:00;1.23;;;1.13;;
36279;SDS011;22317;47.936;12.742;2022-09-27T01:59:34;1.17;;;1.17;;
36279;SDS011;22317;47.936;12.742;2022-09-27T02:02:30;1.20;;;1.10;;
36279;SDS011;22317;47.936;12.742;2022-09-27T02:05:21;1.10;;;1.10;;
36279;SDS011;22317;47.936;12.742;2022-09-27T02:07:58;1.30;;;1.20;;
36279;SDS011;22317;47.936;12.742;2022-09-27T02:10:30;1.90;;;1.60;;
36279;SDS011;22317;47.936;12.742;2022-09-27T02:13:16;5.43;;;2.60;;
36279;SDS011;22317;47.936;12.742;2022-09-27T02:21:40;3.77;;;2.17;;
36279;SDS011;22317;47.936;12.742;2022-09-27T02:24:18;4.27;;;1.70;;
36279;SDS011;22317;47.936;12.742;2022-09-27T02:26:51;2.10;;;1.90;;
36279;SDS011;22317;47.936;12.742;2022-09-27T02:30:00;2.43;;;1.50;;
36279;SDS011;22317;47.936;12.742;2022-09-27T02:32:40;1.53;;;1.40;;
36279;SDS011;22317;47.936;12.742;2022-09-27T02:35:12;3.23;;;1.40;;
36279;SDS011;22317;47.936;12.742;2022-09-27T02:37:51;1.37;;;1.27;;
36279;SDS011;22317;47.936;12.742;2022-09-27T02:40:18;1.37;;;1.10;;
36279;SDS011;22317;47.936;12.742;2022-09-27T02:42:44;1.50;;;1.40;;
36279;SDS011;22317;47.936;12.742;2022-09-27T02:45:11;2.97;;;1.40;;
36279;SDS011;22317;47.936;12.742;2022-09-27T02:56:33;3.90;;;1.27;;
36279;SDS011;22317;47.936;12.742;2022-09-27T03:00:07;1.37;;;1.27;;
36279;SDS011;22317;47.936;12.742;2022-09-27T03:05:50;3.03;;;1.20;;
36279;SDS011;22317;47.936;12.742;2022-09-27T03:08:27;1.47;;;1.37;;
36279;SDS011;22317;47.936;12.742;2022-09-27T03:10:54;1.40;;;1.30;;
36279;SDS011;22317;47.936;12.742;2022-09-27T03:13:20;1.83;;;1.50;;
36279;SDS011;22317;47.936;12.742;2022-09-27T03:15:46;1.87;;;1.40;;
36279;SDS011;22317;47.936;12.742;2022-09-27T03:18:17;3.00;;;1.50;;
36279;SDS011;22317;47.936;12.742;2022-09-27T03:20:52;2.10;;;1.30;;
36279;SDS011;22317;47.936;12.742;2022-09-27T03:23:19;1.30;;;1.30;;
36279;SDS011;22317;47.936;12.742;2022-09-27T03:25:46;1.87;;;1.43;;
36279;SDS011;22317;47.936;12.742;2022-09-27T03:28:12;1.97;;;1.40;;
36279;SDS011;22317;47.936;12.742;2022-09-27T03:30:40;1.37;;;1.27;;
36279;SDS011;22317;47.936;12.742;2022-09-27T03:33:07;1.23;;;1.13;;
36279;SDS011;22317;47.936;12.742;2022-09-27T03:35:48;1.00;;;1.00;;
36279;SDS011;22317;47.936;12.742;2022-09-27T03:38:14;1.20;;;1.10;;
36279;SDS011;22317;47.936;12.742;2022-09-27T03:40:40;1.47;;;1.37;;
36279;SDS011;22317;47.936;12.742;2022-09-27T03:43:07;1.40;;;1.30;;
36279;SDS011;22317;47.936;12.742;2022-09-27T03:45:32;1.50;;;1.40;;
36279;SDS011;22317;47.936;12.742;2022-09-27T03:48:03;1.40;;;1.30;;
36279;SDS011;22317;47.936;12.742;2022-09-27T03:50:29;1.60;;;1.13;;
36279;SDS011;22317;47.936;12.742;2022-09-27T03:52:54;1.70;;;1.43;;
36279;SDS011;22317;47.936;12.742;2022-09-27T03:55:21;4.47;;;1.50;;
36279;SDS011;22317;47.936;12.742;2022-09-27T03:57:47;1.50;;;1.40;;
36279;SDS011;22317;47.936;12.742;2022-09-27T04:00:15;1.40;;;1.30;;
36279;SDS011;22317;47.936;12.742;2022-09-27T04:02:42;3.67;;;1.33;;
36279;SDS011;22317;47.936;12.742;2022-09-27T04:05:24;1.60;;;1.43;;
36279;SDS011;22317;47.936;12.742;2022-09-27T04:07:57;2.80;;;1.77;;
36279;SDS011;22317;47.936;12.742;2022-09-27T04:10:23;1.93;;;1.53;;
36279;SDS011;22317;47.936;12.742;2022-09-27T04:12:49;2.10;;;1.40;;
36279;SDS011;22317;47.936;12.742;2022-09-27T04:15:17;2.57;;;1.63;;
36279;SDS011;22317;47.936;12.742;2022-09-27T04:17:49;3.60;;;1.93;;
36279;SDS011;22317;47.936;12.742;2022-09-27T04:20:38;1.97;;;1.87;;
36279;SDS011;22317;47.936;12.742;2022-09-27T04:23:07;4.37;;;1.97;;
36279;SDS011;22317;47.936;12.742;2022-09-27T04:25:36;2.17;;;1.97;;
36279;SDS011;22317;47.936;12.742;2022-09-27T04:28:09;3.83;;;1.90;;
36279;SDS011;22317;47.936;12.742;2022-09-27T04:30:35;2.03;;;1.90;;
36279;SDS011;22317;47.936;12.742;2022-09-27T04:33:10;3.23;;;2.20;;
36279;SDS011;22317;47.936;12.742;2022-09-27T04:35:54;1.80;;;1.70;;
36279;SDS011;22317;47.936;12.742;2022-09-27T04:38:47;4.83;;;2.07;;
36279;SDS011;22317;47.936;12.742;2022-09-27T04:41:18;2.87;;;1.83;;
36279;SDS011;22317;47.936;12.742;2022-09-27T04:43:46;2.67;;;1.90;;
36279;SDS011;22317;47.936;12.742;2022-09-27T04:46:12;3.10;;;2.43;;
36279;SDS011;22317;47.936;12.742;2022-09-27T04:48:38;4.17;;;2.57;;
36279;SDS011;22317;47.936;12.742;2022-09-27T04:51:05;4.07;;;2.20;;
36279;SDS011;22317;47.936;12.742;2022-09-27T04:53:31;2.90;;;1.90;;
36279;SDS011;22317;47.936;12.742;2022-09-27T04:56:00;4.07;;;1.60;;
36279;SDS011;22317;47.936;12.742;2022-09-27T04:58:27;1.97;;;1.57;;
36279;SDS011;22317;47.936;12.742;2022-09-27T05:00:54;1.50;;;1.40;;
36279;SDS011;22317;47.936;12.742;2022-09-27T05:03:52;1.53;;;1.43;;
36279;SDS011;22317;47.936;12.742;2022-09-27T05:06:17;1.90;;;1.80;;
36279;SDS011;22317;47.936;12.742;2022-09-27T05:08:43;1.80;;;1.20;;
36279;SDS011;22317;47.936;12.742;2022-09-27T05:11:30;1.10;;;1.10;;
36279;SDS011;22317;47.936;12.742;2022-09-27T05:14:19;1.50;;;1.40;;
36279;SDS011;22317;47.936;12.742;2022-09-27T05:17:20;1.20;;;1.10;;
36279;SDS011;22317;47.936;12.742;2022-09-27T05:20:13;1.40;;;1.30;;
36279;SDS011;22317;47.936;12.742;2022-09-27T05:22:42;1.77;;;1.67;;
36279;SDS011;22317;47.936;12.742;2022-09-27T05:25:08;1.50;;;1.40;;
36279;SDS011;22317;47.936;12.742;2022-09-27T05:27:35;1.80;;;1.70;;
36279;SDS011;22317;47.936;12.742;2022-09-27T05:30:00;1.50;;;1.40;;
36279;SDS011;22317;47.936;12.742;2022-09-27T05:32:38;1.60;;;1.50;;
36279;SDS011;22317;47.936;12.742;2022-09-27T05:35:26;1.60;;;1.50;;
36279;SDS011;22317;47.936;12.742;2022-09-27T05:37:54;1.90;;;1.80;;
36279;SDS011;22317;47.936;12.742;2022-09-27T05:40:22;1.73;;;1.63;;
36279;SDS011;22317;47.936;12.742;2022-09-27T05:42:52;2.00;;;1.73;;
36279;SDS011;22317;47.936;12.742;2022-09-27T05:45:19;2.13;;;1.67;;
36279;SDS011;22317;47.936;12.742;2022-09-27T05:47:53;1.60;;;1.50;;
36279;SDS011;22317;47.936;12.742;2022-09-27T05:50:20;1.90;;;1.80;;
36279;SDS011;22317;47.936;12.742;2022-09-27T05:52:47;3.57;;;1.80;;
36279;SDS011;22317;47.936;12.742;2022-09-27T05:55:15;1.77;;;1.67;;
36279;SDS011;22317;47.936;12.742;2022-09-27T05:57:41;1.87;;;1.73;;
36279;SDS011;22317;47.936;12.742;2022-09-27T06:00:08;1.70;;;1.60;;
36279;SDS011;22317;47.936;12.742;2022-09-27T06:02:37;1.40;;;1.30;;
36279;SDS011;22317;47.936;12.742;2022-09-27T06:05:22;1.60;;;1.50;;
36279;SDS011;22317;47.936;12.742;2022-09-27T06:08:08;1.80;;;1.70;;
36279;SDS011;22317;47.936;12.742;2022-09-27T06:10:41;1.80;;;1.70;;
36279;SDS011;22317;47.936;12.742;2022-09-27T06:13:12;2.50;;;2.30;;
36279;SDS011;22317;47.936;12.742;2022-09-27T06:15:42;2.50;;;2.30;;
36279;SDS011;22317;47.936;12.742;2022-09-27T06:18:13;3.87;;;1.93;;
36279;SDS011;22317;47.936;12.742;2022-09-27T06:20:45;2.47;;;2.00;;
36279;SDS011;22317;47.936;12.742;2022-09-27T06:23:12;4.03;;;2.20;;
36279;SDS011;22317;47.936;12.742;2022-09-27T06:25:40;6.00;;;4.20;;
36279;SDS011;22317;47.936;12.742;2022-09-27T06:28:21;15.47;;;9.00;;
36279;SDS011;22317;47.936;12.742;2022-09-27T06:30:51;8.10;;;6.10;;
36279;SDS011;22317;47.936;12.742;2022-09-27T06:33:25;8.53;;;5.57;;
36279;SDS011;22317;47.936;12.742;2022-09-27T06:35:59;2.13;;;1.70;;
36279;SDS011;22317;47.936;12.742;2022-09-27T06:38:27;1.53;;;1.20;;
36279;SDS011;22317;47.936;12.742;2022-09-27T06:41:10;0.90;;;0.90;;
36279;SDS011;22317;47.936;12.742;2022-09-27T06:43:56;1.13;;;0.73;;
36279;SDS011;22317;47.936;12.742;2022-09-27T06:46:41;2.03;;;0.80;;
36279;SDS011;22317;47.936;12.742;2022-09-27T06:49:09;0.67;;;0.67;;
36279;SDS011;22317;47.936;12.742;2022-09-27T06:51:35;2.63;;;0.80;;
36279;SDS011;22317;47.936;12.742;2022-09-27T06:54:04;0.60;;;0.60;;
36279;SDS011;22317;47.936;12.742;2022-09-27T06:56:30;2.60;;;1.13;;
36279;SDS011;22317;47.936;12.742;2022-09-27T06:58:56;1.70;;;0.90;;
36279;SDS011;22317;47.936;12.742;2022-09-27T07:01:40;1.57;;;0.90;;
36279;SDS011;22317;47.936;12.742;2022-09-27T07:04:25;0.97;;;0.90;;
36279;SDS011;22317;47.936;12.742;2022-09-27T07:07:02;2.30;;;1.00;;
36279;SDS011;22317;47.936;12.742;2022-09-27T07:09:31;0.83;;;0.80;;
36279;SDS011;22317;47.936;12.742;2022-09-27T07:11:57;1.73;;;1.00;;
36279;SDS011;22317;47.936;12.742;2022-09-27T07:14:24;1.20;;;1.10;;
36279;SDS011;22317;47.936;12.742;2022-09-27T07:16:53;1.10;;;0.97;;
36279;SDS011;22317;47.936;12.742;2022-09-27T07:19:19;0.93;;;0.90;;
36279;SDS011;22317;47.936;12.742;2022-09-27T07:21:49;1.90;;;1.10;;
36279;SDS011;22317;47.936;12.742;2022-09-27T07:24:15;1.20;;;1.20;;
36279;SDS011;22317;47.936;12.742;2022-09-27T07:26:41;0.93;;;0.80;;
36279;SDS011;22317;47.936;12.742;2022-09-27T07:29:09;0.87;;;0.60;;
36279;SDS011;22317;47.936;12.742;2022-09-27T07:31:35;1.10;;;0.70;;
36279;SDS011;22317;47.936;12.742;2022-09-27T07:34:02;1.03;;;0.83;;
36279;SDS011;22317;47.936;12.742;2022-09-27T07:36:28;1.00;;;1.00;;
36279;SDS011;22317;47.936;12.742;2022-09-27T07:39:00;2.27;;;0.90;;
36279;SDS011;22317;47.936;12.742;2022-09-27T07:41:26;3.87;;;2.93;;
36279;SDS011;22317;47.936;12.742;2022-09-27T07:43:52;17.23;;;13.00;;
36279;SDS011;22317;47.936;12.742;2022-09-27T07:46:19;2.30;;;2.20;;
36279;SDS011;22317;47.936;12.742;2022-09-27T07:48:52;10.73;;;8.27;;
36279;SDS011;22317;47.936;12.742;2022-09-27T07:51:42;4.13;;;3.77;;
36279;SDS011;22317;47.936;12.742;2022-09-27T07:54:27;4.93;;;4.47;;
36279;SDS011;22317;47.936;12.742;2022-09-27T07:57:14;2.20;;;2.00;;
36279;SDS011;22317;47.936;12.742;2022-09-27T07:59:47;3.53;;;2.57;;
36279;SDS011;22317;47.936;12.742;2022-09-27T08:02:16;2.97;;;1.10;;
36279;SDS011;22317;47.936;12.742;2022-09-27T08:04:43;2.53;;;2.33;;
36279;SDS011;22317;47.936;12.742;2022-09-27T08:07:11;0.83;;;0.83;;
36279;SDS011;22317;47.936;12.742;2022-09-27T08:09:42;1.80;;;1.70;;
36279;SDS011;22317;47.936;12.742;2022-09-27T08:12:08;2.00;;;1.90;;
36279;SDS011;22317;47.936;12.742;2022-09-27T08:14:37;1.03;;;0.80;;
36279;SDS011;22317;47.936;12.742;2022-09-27T08:17:03;1.67;;;1.57;;
36279;SDS011;22317;47.936;12.742;2022-09-27T08:19:53;0.60;;;0.60;;
36279;SDS011;22317;47.936;12.742;2022-09-27T08:22:41;0.80;;;0.60;;
36279;SDS011;22317;47.936;12.742;2022-09-27T08:25:21;0.60;;;0.60;;
36279;SDS011;22317;47.936;12.742;2022-09-27T08:28:12;1.73;;;0.60;;
36279;SDS011;22317;47.936;12.742;2022-09-27T08:30:53;1.37;;;0.70;;
36279;SDS011;22317;47.936;12.742;2022-09-27T08:33:19;3.03;;;0.97;;
36279;SDS011;22317;47.936;12.742;2022-09-27T08:35:45;0.80;;;0.70;;
36279;SDS011;22317;47.936;12.742;2022-09-27T08:38:11;0.50;;;0.50;;
36279;SDS011;22317;47.936;12.742;2022-09-27T08:40:58;0.60;;;0.50;;
36279;SDS011;22317;47.936;12.742;2022-09-27T08:52:33;0.40;;;0.30;;
36279;SDS011;22317;47.936;12.742;2022-09-27T08:55:09;0.30;;;0.30;;
36279;SDS011;22317;47.936;12.742;2022-09-27T08:57:51;0.20;;;0.20;;
36279;SDS011;22317;47.936;12.742;2022-09-27T09:00:22;0.97;;;0.30;;
36279;SDS011;22317;47.936;12.742;2022-09-27T09:02:48;1.33;;;0.83;;
36279;SDS011;22317;47.936;12.742;2022-09-27T09:05:30;0.90;;;0.40;;
36279;SDS011;22317;47.936;12.742;2022-09-27T09:10:52;0.43;;;0.43;;
36279;SDS011;22317;47.936;12.742;2022-09-27T09:19:39;0.50;;;0.33;;
36279;SDS011;22317;47.936;12.742;2022-09-27T09:38:58;2.97;;;1.87;;
36279;SDS011;22317;47.936;12.742;2022-09-27T09:42:03;1.60;;;1.40;;
36279;SDS011;22317;47.936;12.742;2022-09-27T09:50:23;1.57;;;0.47;;
36279;SDS011;22317;47.936;12.742;2022-09-27T09:52:58;0.47;;;0.40;;
36279;SDS011;22317;47.936;12.742;2022-09-27T09:55:37;0.40;;;0.40;;
36279;SDS011;22317;47.936;12.742;2022-09-27T09:58:23;1.80;;;0.57;;
36279;SDS011;22317;47.936;12.742;2022-09-27T10:01:19;2.27;;;0.80;;
36279;SDS011;22317;47.936;12.742;2022-09-27T10:03:49;1.33;;;0.90;;
36279;SDS011;22317;47.936;12.742;2022-09-27T10:06:15;1.17;;;1.07;;
36279;SDS011;22317;47.936;12.742;2022-09-27T10:08:43;0.60;;;0.57;;
36279;SDS011;22317;47.936;12.742;2022-09-27T10:11:21;0.70;;;0.53;;
36279;SDS011;22317;47.936;12.742;2022-09-27T10:14:27;0.83;;;0.83;;
36279;SDS011;22317;47.936;12.742;2022-09-27T10:17:00;1.10;;;1.00;;
36279;SDS011;22317;47.936;12.742;2022-09-27T10:19:30;0.70;;;0.60;;
36279;SDS011;22317;47.936;12.742;2022-09-27T10:22:02;0.40;;;0.40;;
36279;SDS011;22317;47.936;12.742;2022-09-27T10:24:59;2.23;;;2.13;;
36279;SDS011;22317;47.936;12.742;2022-09-27T10:27:41;0.57;;;0.40;;
36279;SDS011;22317;47.936;12.742;2022-09-27T10:30:30;1.17;;;0.60;;
36279;SDS011;22317;47.936;12.742;2022-09-27T10:33:04;1.40;;;1.30;;
36279;SDS011;22317;47.936;12.742;2022-09-27T10:35:41;3.93;;;2.53;;
36279;SDS011;22317;47.936;12.742;2022-09-27T10:38:19;0.80;;;0.80;;
36279;SDS011;22317;47.936;12.742;2022-09-27T10:40:57;2.53;;;2.33;;
36279;SDS011;22317;47.936;12.742;2022-09-27T10:43:41;0.50;;;0.20;;
36279;SDS011;22317;47.936;12.742;2022-09-27T10:46:29;0.57;;;0.40;;
36279;SDS011;22317;47.936;12.742;2022-09-27T10:51:55;3.87;;;3.50;;
36279;SDS011;22317;47.936;12.742;2022-09-27T10:54:51;5.87;;;4.87;;
36279;SDS011;22317;47.936;12.742;2022-09-27T10:57:32;0.50;;;0.50;;
36279;SDS011;22317;47.936;12.742;2022-09-27T11:00:03;1.60;;;1.50;;
36279;SDS011;22317;47.936;12.742;2022-09-27T11:02:36;3.73;;;2.97;;
36279;SDS011;22317;47.936;12.742;2022-09-27T11:07:54;0.63;;;0.53;;
36279;SDS011;22317;47.936;12.742;2022-09-27T11:10:36;1.70;;;1.60;;
36279;SDS011;22317;47.936;12.742;2022-09-27T11:15:46;0.98;;;0.98;;
36279;SDS011;22317;47.936;12.742;2022-09-27T11:21:43;0.60;;;0.60;;
36279;SDS011;22317;47.936;12.742;2022-09-27T11:30:00;0.60;;;0.60;;
36279;SDS011;22317;47.936;12.742;2022-09-27T11:33:10;1.57;;;0.93;;
36279;SDS011;22317;47.936;12.742;2022-09-27T11:36:18;0.90;;;0.90;;
36279;SDS011;22317;47.936;12.742;2022-09-27T11:39:08;2.00;;;1.80;;
36279;SDS011;22317;47.936;12.742;2022-09-27T11:44:53;0.87;;;0.60;;
36279;SDS011;22317;47.936;12.742;2022-09-27T11:52:56;0.37;;;0.27;;
36279;SDS011;22317;47.936;12.742;2022-09-27T12:03:51;0.50;;;0.30;;
36279;SDS011;22317;47.936;12.742;2022-09-27T12:06:53;0.40;;;0.40;;
36279;SDS011;22317;47.936;12.742;2022-09-27T12:09:22;0.40;;;0.40;;
36279;SDS011;22317;47.936;12.742;2022-09-27T12:11:58;0.17;;;0.17;;
36279;SDS011;22317;47.936;12.742;2022-09-27T12:14:39;0.98;;;0.20;;
36279;SDS011;22317;47.936;12.742;2022-09-27T12:17:15;2.42;;;2.22;;
36279;SDS011;22317;47.936;12.742;2022-09-27T12:19:49;2.47;;;2.28;;
36279;SDS011;22317;47.936;12.742;2022-09-27T12:22:39;4.30;;;3.90;;
36279;SDS011;22317;47.936;12.742;2022-09-27T12:25:22;0.30;;;0.30;;
36279;SDS011;22317;47.936;12.742;2022-09-27T12:31:19;4.10;;;3.72;;
36279;SDS011;22317;47.936;12.742;2022-09-27T12:36:40;0.38;;;0.30;;
36279;SDS011;22317;47.936;12.742;2022-09-27T12:39:21;1.13;;;1.02;;
36279;SDS011;22317;47.936;12.742;2022-09-27T12:42:05;0.20;;;0.20;;
36279;SDS011;22317;47.936;12.742;2022-09-27T12:44:43;0.30;;;0.30;;
36279;SDS011;22317;47.936;12.742;2022-09-27T12:52:24;0.98;;;0.98;;
36279;SDS011;22317;47.936;12.742;2022-09-27T13:06:39;0.50;;;0.30;;
36279;SDS011;22317;47.936;12.742;2022-09-27T13:11:50;0.88;;;0.40;;
36279;SDS011;22317;47.936;12.742;2022-09-27T13:14:41;0.88;;;0.88;;
36279;SDS011;22317;47.936;12.742;2022-09-27T13:20:31;1.58;;;1.13;;
36279;SDS011;22317;47.936;12.742;2022-09-27T13:23:08;1.17;;;1.08;;
36279;SDS011;22317;47.936;12.742;2022-09-27T13:25:59;2.05;;;1.95;;
36279;SDS011;22317;47.936;12.742;2022-09-27T13:40:08;0.93;;;0.88;;
36279;SDS011;22317;47.936;12.742;2022-09-27T13:46:02;1.10;;;0.55;;
36279;SDS011;22317;47.936;12.742;2022-09-27T13:53:56;1.40;;;0.30;;
36279;SDS011;22317;47.936;12.742;2022-09-27T13:56:51;2.05;;;0.95;;
36279;SDS011;22317;47.936;12.742;2022-09-27T13:59:32;0.80;;;0.80;;
36279;SDS011;22317;47.936;12.742;2022-09-27T14:02:33;2.67;;;1.00;;
36279;SDS011;22317;47.936;12.742;2022-09-27T14:05:06;1.35;;;1.25;;
36279;SDS011;22317;47.936;12.742;2022-09-27T14:07:41;1.77;;;1.02;;
36279;SDS011;22317;47.936;12.742;2022-09-27T14:10:15;1.00;;;0.75;;
36279;SDS011;22317;47.936;12.742;2022-09-27T14:12:45;1.50;;;1.20;;
36279;SDS011;22317;47.936;12.742;2022-09-27T14:15:16;2.17;;;1.67;;
36279;SDS011;22317;47.936;12.742;2022-09-27T14:17:53;1.52;;;0.70;;
36279;SDS011;22317;47.936;12.742;2022-09-27T14:20:33;2.10;;;1.50;;
36279;SDS011;22317;47.936;12.742;2022-09-27T14:23:34;9.23;;;7.53;;
36279;SDS011;22317;47.936;12.742;2022-09-27T14:26:00;1.05;;;0.40;;
36279;SDS011;22317;47.936;12.742;2022-09-27T14:28:28;1.20;;;1.10;;
36279;SDS011;22317;47.936;12.742;2022-09-27T14:31:24;1.85;;;0.82;;
36279;SDS011;22317;47.936;12.742;2022-09-27T14:34:06;1.05;;;0.60;;
36279;SDS011;22317;47.936;12.742;2022-09-27T14:36:38;1.38;;;0.70;;
36279;SDS011;22317;47.936;12.742;2022-09-27T14:39:32;0.70;;;0.40;;
36279;SDS011;22317;47.936;12.742;2022-09-27T14:42:21;3.35;;;0.50;;
36279;SDS011;22317;47.936;12.742;2022-09-27T14:44:50;1.58;;;0.90;;
36279;SDS011;22317;47.936;12.742;2022-09-27T14:47:18;1.45;;;0.50;;
36279;SDS011;22317;47.936;12.742;2022-09-27T14:49:48;1.58;;;1.00;;
36279;SDS011;22317;47.936;12.742;2022-09-27T14:52:30;0.85;;;0.80;;
36279;SDS011;22317;47.936;12.742;2022-09-27T14:57:26;1.42;;;0.55;;
36279;SDS011;22317;47.936;12.742;2022-09-27T14:59:56;0.40;;;0.40;;
36279;SDS011;22317;47.936;12.742;2022-09-27T15:02:23;1.33;;;0.80;;
36279;SDS011;22317;47.936;12.742;2022-09-27T15:04:50;1.85;;;0.57;;
36279;SDS011;22317;47.936;12.742;2022-09-27T15:07:18;3.20;;;0.60;;
36279;SDS011;22317;47.936;12.742;2022-09-27T15:09:46;3.17;;;0.50;;
36279;SDS011;22317;47.936;12.742;2022-09-27T15:12:15;2.07;;;1.10;;
36279;SDS011;22317;47.936;12.742;2022-09-27T15:14:48;1.03;;;0.90;;
36279;SDS011;22317;47.936;12.742;2022-09-27T15:17:16;0.65;;;0.55;;
36279;SDS011;22317;47.936;12.742;2022-09-27T15:19:54;2.23;;;1.57;;
36279;SDS011;22317;47.936;12.742;2022-09-27T15:22:35;3.70;;;1.10;;
36279;SDS011;22317;47.936;12.742;2022-09-27T15:25:15;2.33;;;1.70;;
36279;SDS011;22317;47.936;12.742;2022-09-27T15:28:27;0.50;;;0.50;;
36279;SDS011;22317;47.936;12.742;2022-09-27T15:30:42;1.20;;;0.43;;
36279;SDS011;22317;47.936;12.742;2022-09-27T15:33:23;0.67;;;0.50;;
36279;SDS011;22317;47.936;12.742;2022-09-27T15:35:56;0.40;;;0.40;;
36279;SDS011;22317;47.936;12.742;2022-09-27T15:38:27;1.90;;;0.67;;
36279;SDS011;22317;47.936;12.742;2022-09-27T15:40:59;1.63;;;0.30;;
36279;SDS011;22317;47.936;12.742;2022-09-27T15:43:30;2.22;;;0.43;;
36279;SDS011;22317;47.936;12.742;2022-09-27T15:45:59;0.77;;;0.50;;
36279;SDS011;22317;47.936;12.742;2022-09-27T15:48:27;0.70;;;0.70;;
36279;SDS011;22317;47.936;12.742;2022-09-27T15:50:56;0.75;;;0.75;;
36279;SDS011;22317;47.936;12.742;2022-09-27T15:56:00;1.50;;;0.60;;
36279;SDS011;22317;47.936;12.742;2022-09-27T15:58:27;1.20;;;0.80;;
36279;SDS011;22317;47.936;12.742;2022-09-27T16:01:00;0.50;;;0.47;;
36279;SDS011;22317;47.936;12.742;2022-09-27T16:03:29;0.45;;;0.45;;
36279;SDS011;22317;47.936;12.742;2022-09-27T16:05:56;0.40;;;0.40;;
36279;SDS011;22317;47.936;12.742;2022-09-27T16:08:23;1.50;;;0.60;;
36279;SDS011;22317;47.936;12.742;2022-09-27T16:10:51;0.47;;;0.40;;
36279;SDS011;22317;47.936;12.742;2022-09-27T16:13:19;1.02;;;0.93;;
36279;SDS011;22317;47.936;12.742;2022-09-27T16:15:45;1.10;;;0.88;;
36279;SDS011;22317;47.936;12.742;2022-09-27T16:18:12;0.95;;;0.77;;
36279;SDS011;22317;47.936;12.742;2022-09-27T16:20:38;0.38;;;0.38;;
36279;SDS011;22317;47.936;12.742;2022-09-27T16:23:04;0.77;;;0.73;;
36279;SDS011;22317;47.936;12.742;2022-09-27T16:25:30;1.50;;;0.40;;
36279;SDS011;22317;47.936;12.742;2022-09-27T16:27:57;1.08;;;1.00;;
36279;SDS011;22317;47.936;12.742;2022-09-27T16:30:23;1.02;;;0.88;;
36279;SDS011;22317;47.936;12.742;2022-09-27T16:32:52;0.60;;;0.60;;
36279;SDS011;22317;47.936;12.742;2022-09-27T16:35:20;0.50;;;0.50;;
36279;SDS011;22317;47.936;12.742;2022-09-27T16:37:47;1.23;;;0.55;;
36279;SDS011;22317;47.936;12.742;2022-09-27T16:40:13;1.88;;;1.60;;
36279;SDS011;22317;47.936;12.742;2022-09-27T16:42:42;3.47;;;2.80;;
36279;SDS011;22317;47.936;12.742;2022-09-27T16:45:09;3.67;;;3.35;;
36279;SDS011;22317;47.936;12.742;2022-09-27T16:47:35;2.30;;;2.10;;
36279;SDS011;22317;47.936;12.742;2022-09-27T16:50:02;1.02;;;0.98;;
36279;SDS011;22317;47.936;12.742;2022-09-27T16:52:47;2.80;;;2.58;;
36279;SDS011;22317;47.936;12.742;2022-09-27T16:55:14;3.30;;;3.00;;
36279;SDS011;22317;47.936;12.742;2022-09-27T16:57:49;2.17;;;2.00;;
36279;SDS011;22317;47.936;12.742;2022-09-27T17:00:15;6.18;;;5.50;;
36279;SDS011;22317;47.936;12.742;2022-09-27T17:02:42;20.13;;;11.13;;
36279;SDS011;22317;47.936;12.742;2022-09-27T17:05:12;81.33;;;33.13;;
36279;SDS011;22317;47.936;12.742;2022-09-27T17:07:38;118.33;;;43.47;;
36279;SDS011;22317;47.936;12.742;2022-09-27T17:10:05;85.90;;;37.30;;
36279;SDS011;22317;47.936;12.742;2022-09-27T17:12:31;62.93;;;35.17;;
36279;SDS011;22317;47.936;12.742;2022-09-27T17:14:57;19.07;;;11.67;;
36279;SDS011;22317;47.936;12.742;2022-09-27T17:17:23;4.47;;;4.13;;
36279;SDS011;22317;47.936;12.742;2022-09-27T17:19:50;3.10;;;2.90;;
36279;SDS011;22317;47.936;12.742;2022-09-27T17:22:15;3.07;;;2.87;;
36279;SDS011;22317;47.936;12.742;2022-09-27T17:24:41;2.80;;;2.60;;
36279;SDS011;22317;47.936;12.742;2022-09-27T17:27:07;17.20;;;10.70;;
36279;SDS011;22317;47.936;12.742;2022-09-27T17:29:33;2.77;;;2.10;;
36279;SDS011;22317;47.936;12.742;2022-09-27T17:31:59;2.10;;;1.40;;
36279;SDS011;22317;47.936;12.742;2022-09-27T17:34:25;3.37;;;1.13;;
36279;SDS011;22317;47.936;12.742;2022-09-27T17:36:51;2.70;;;1.20;;
36279;SDS011;22317;47.936;12.742;2022-09-27T17:39:18;1.50;;;1.30;;
36279;SDS011;22317;47.936;12.742;2022-09-27T17:41:46;1.93;;;1.30;;
36279;SDS011;22317;47.936;12.742;2022-09-27T17:44:13;3.37;;;1.60;;
36279;SDS011;22317;47.936;12.742;2022-09-27T17:46:42;1.60;;;1.50;;
36279;SDS011;22317;47.936;12.742;2022-09-27T17:49:09;3.20;;;1.90;;
36279;SDS011;22317;47.936;12.742;2022-09-27T17:51:54;4.30;;;3.53;;
36279;SDS011;22317;47.936;12.742;2022-09-27T17:54:21;3.03;;;2.73;;
36279;SDS011;22317;47.936;12.742;2022-09-27T17:56:49;2.30;;;1.97;;
36279;SDS011;22317;47.936;12.742;2022-09-27T17:59:15;3.63;;;1.60;;
36279;SDS011;22317;47.936;12.742;2022-09-27T18:01:42;6.57;;;2.00;;
36279;SDS011;22317;47.936;12.742;2022-09-27T18:04:10;2.83;;;2.63;;
36279;SDS011;22317;47.936;12.742;2022-09-27T18:06:42;3.97;;;2.60;;
36279;SDS011;22317;47.936;12.742;2022-09-27T18:09:11;0.87;;;0.87;;
36279;SDS011;22317;47.936;12.742;2022-09-27T18:11:38;2.20;;;2.00;;
36279;SDS011;22317;47.936;12.742;2022-09-27T18:14:05;1.37;;;0.50;;